ME3 weather

Bradford Camps Seaplane Base
Ashland, Maine, United States

Public forecast

Using degrees Fahrenheit for public forecast. Weather courtesy of forecast.io.

Closest aviation weather report (METAR) to Bradford Camps Seaplane Base

Closest report is Presque Isle International Airport, 43.4 nm (80.3 km) ENE. Retrieved 2020/08/04 01:56 UTC (45 minutes ago):

KPQI 040156Z AUTO 26005KT 10SM BKN043 BKN060 19/18 A2993 RMK AO2 SLP158 T01940178

Closest aviation forecast (TAF) to Bradford Camps Seaplane Base

Closest forecast is Presque Isle International Airport, 43.4 nm (80.3 km) ENE. Retrieved 2020-08-04 00:22 UTC (2 hours ago):

TAF KPQI 032320Z 0400/0424 26004KT P6SM BKN040 FM040600 VRB03KT P6SM SCT050 FM041000 VRB03KT 3SM BR SCT050 FM041200 VRB03KT P6SM SCT050 FM042200 18006KT P6SM VCSH BKN050 OVC090